createdAt,value
2022-08-17T00:00:43.332Z,18.40
2022-08-17T00:08:41.887Z,18.40
2022-08-17T00:13:26.066Z,18.40
2022-08-17T00:19:34.084Z,18.00
2022-08-17T00:23:21.064Z,18.10
2022-08-17T00:27:48.763Z,18.20
2022-08-17T00:30:26.066Z,17.40
2022-08-17T00:33:14.905Z,18.20
2022-08-17T00:42:57.082Z,18.40
2022-08-17T00:46:18.542Z,18.30
2022-08-17T00:47:20.868Z,18.40
2022-08-17T00:50:44.083Z,18.20
2022-08-17T01:52:46.192Z,18.00
2022-08-17T02:15:55.561Z,17.70
2022-08-17T02:44:39.074Z,17.70
2022-08-17T03:12:07.285Z,17.80
2022-08-17T03:14:20.126Z,18.00
2022-08-17T03:22:36.022Z,17.70
2022-08-17T03:41:55.132Z,17.60
2022-08-17T03:42:57.673Z,17.70
2022-08-17T03:44:01.192Z,17.70
2022-08-17T03:50:38.582Z,17.70
2022-08-17T04:07:07.513Z,17.60
2022-08-17T04:09:13.902Z,17.70
2022-08-17T04:23:37.883Z,17.60
2022-08-17T04:40:48.333Z,17.70
2022-08-17T04:44:36.904Z,17.90
2022-08-17T04:51:47.925Z,17.90
2022-08-17T04:52:58.399Z,18.10
2022-08-17T04:54:11.144Z,18.20
2022-08-17T04:57:22.829Z,18.30
2022-08-17T05:00:40.102Z,18.30
2022-08-17T05:01:45.527Z,18.50
2022-08-17T05:18:30.817Z,18.70
2022-08-17T05:19:40.169Z,18.70
2022-08-17T05:23:59.763Z,18.70
2022-08-17T05:50:09.882Z,18.90
2022-08-17T06:26:43.463Z,19.50
2022-08-17T06:34:49.938Z,19.60
2022-08-17T07:05:23.159Z,20.60
2022-08-17T07:06:37.939Z,20.70
2022-08-17T07:34:25.199Z,21.30
2022-08-17T07:49:55.016Z,21.40
2022-08-17T07:53:31.386Z,21.70
2022-08-17T07:54:43.211Z,21.90
2022-08-17T07:56:52.569Z,22.00
2022-08-17T07:59:09.619Z,22.10
2022-08-17T08:02:58.576Z,22.40
2022-08-17T08:09:00.682Z,22.60
2022-08-17T08:10:11.873Z,22.80
2022-08-17T08:14:55.376Z,22.90
2022-08-17T08:16:27.247Z,23.00
2022-08-17T08:20:01.766Z,23.10
2022-08-17T08:26:21.412Z,23.60
2022-08-17T08:27:43.254Z,23.70
2022-08-17T08:28:54.769Z,23.70
2022-08-17T08:30:05.455Z,23.90
2022-08-17T08:37:53.288Z,24.20
2022-08-17T08:39:04.700Z,24.30
2022-08-17T08:40:18.112Z,24.40
2022-08-17T08:41:32.267Z,24.30
2022-08-17T08:42:46.656Z,24.30
2022-08-17T08:44:10.378Z,24.40
2022-08-17T08:45:17.942Z,24.50
2022-08-17T08:46:30.380Z,24.50
2022-08-17T08:47:51.647Z,24.50
2022-08-17T08:50:02.144Z,24.70
2022-08-17T08:51:06.457Z,24.70
2022-08-17T08:52:22.011Z,24.70
2022-08-17T08:53:37.452Z,24.80
2022-08-17T08:54:56.414Z,24.90
2022-08-17T08:56:05.727Z,24.80
2022-08-17T08:57:29.431Z,24.90
2022-08-17T08:58:50.625Z,24.90
2022-08-17T09:00:06.861Z,24.90
2022-08-17T09:01:18.291Z,24.90
2022-08-17T09:02:41.432Z,25.00
2022-08-17T09:04:24.042Z,25.10
2022-08-17T09:05:40.194Z,25.10
2022-08-17T09:07:06.238Z,25.10
2022-08-17T09:08:23.244Z,25.10
2022-08-17T09:09:40.513Z,25.20
2022-08-17T09:10:56.982Z,25.30
2022-08-17T09:12:08.917Z,25.30
2022-08-17T09:13:25.424Z,25.30
2022-08-17T09:14:46.812Z,25.40
2022-08-17T09:15:57.854Z,25.50
2022-08-17T09:19:00.480Z,25.60
2022-08-17T09:19:50.272Z,25.60
2022-08-17T09:20:57.722Z,25.80
2022-08-17T09:22:12.032Z,25.90
2022-08-17T09:23:20.692Z,25.80
2022-08-17T09:24:32.950Z,25.80
2022-08-17T09:25:56.234Z,25.80
2022-08-17T09:27:03.502Z,25.80
2022-08-17T09:28:09.969Z,25.80
2022-08-17T09:29:22.226Z,25.90
2022-08-17T09:30:27.054Z,25.90
2022-08-17T09:31:49.181Z,25.90
2022-08-17T09:34:10.636Z,25.90
2022-08-17T09:35:19.539Z,26.00
2022-08-17T09:37:40.429Z,25.80
2022-08-17T09:38:53.775Z,25.80
2022-08-17T09:40:11.104Z,26.00
2022-08-17T09:41:18.206Z,25.90
2022-08-17T09:42:34.397Z,26.00
2022-08-17T09:43:44.741Z,26.00
2022-08-17T09:44:55.658Z,26.00
2022-08-17T09:46:04.140Z,26.10
2022-08-17T09:47:19.420Z,26.10
2022-08-17T09:48:28.519Z,26.10
2022-08-17T09:49:44.245Z,26.10
2022-08-17T09:51:05.910Z,26.10
2022-08-17T09:52:17.884Z,26.10
2022-08-17T09:53:20.668Z,26.20
2022-08-17T09:54:39.165Z,26.20
2022-08-17T09:56:19.249Z,26.10
2022-08-17T09:57:36.745Z,26.30
2022-08-17T09:58:49.702Z,26.40
2022-08-17T10:01:29.109Z,26.40
2022-08-17T10:02:51.562Z,26.40
2022-08-17T10:04:17.759Z,26.50
2022-08-17T10:05:34.281Z,26.60
2022-08-17T10:06:48.711Z,26.70
2022-08-17T10:07:57.504Z,26.70
2022-08-17T10:09:08.343Z,26.60
2022-08-17T10:10:22.478Z,26.70
2022-08-17T10:11:55.427Z,26.80
2022-08-17T10:13:05.843Z,26.80
2022-08-17T10:14:37.484Z,26.80
2022-08-17T10:15:54.604Z,26.80
2022-08-17T10:17:11.289Z,26.90
2022-08-17T10:18:37.948Z,26.80
2022-08-17T10:19:49.710Z,26.90
2022-08-17T10:21:14.793Z,26.80
2022-08-17T10:22:53.248Z,26.90
2022-08-17T10:24:24.791Z,26.90
2022-08-17T10:25:54.973Z,26.90
2022-08-17T10:27:03.363Z,26.80
2022-08-17T10:28:20.390Z,26.90
2022-08-17T10:29:34.154Z,26.90
2022-08-17T10:31:34.428Z,27.00
2022-08-17T10:32:46.222Z,27.00
2022-08-17T10:34:09.275Z,27.00
2022-08-17T10:35:30.929Z,26.90
2022-08-17T10:36:46.122Z,27.00
2022-08-17T10:38:09.963Z,27.10
2022-08-17T10:39:32.681Z,27.10
2022-08-17T10:40:45.540Z,27.10
2022-08-17T10:41:54.119Z,27.10
2022-08-17T10:43:02.564Z,27.20
2022-08-17T10:44:40.425Z,27.20
2022-08-17T10:45:46.948Z,27.20
2022-08-17T10:47:01.664Z,27.30
2022-08-17T10:48:30.373Z,27.10
2022-08-17T10:49:40.294Z,27.20
2022-08-17T10:50:59.814Z,27.10
2022-08-17T10:52:26.229Z,27.40
2022-08-17T10:54:00.443Z,27.50
2022-08-17T10:55:21.475Z,27.50
2022-08-17T10:57:03.306Z,27.50
2022-08-17T10:58:31.758Z,27.60
2022-08-17T10:59:59.473Z,27.80
2022-08-17T11:01:04.106Z,27.80
2022-08-17T11:02:24.538Z,27.90
2022-08-17T11:03:28.783Z,27.70
2022-08-17T11:04:47.988Z,27.70
2022-08-17T11:05:59.246Z,27.80
2022-08-17T11:07:11.613Z,27.70
2022-08-17T11:08:44.483Z,27.70
2022-08-17T11:10:06.346Z,27.60
2022-08-17T11:11:36.094Z,27.70
2022-08-17T11:12:56.313Z,27.50
2022-08-17T11:14:21.608Z,27.50
2022-08-17T11:15:39.536Z,27.60
2022-08-17T11:16:53.683Z,27.50
2022-08-17T11:18:17.324Z,27.50
2022-08-17T11:19:56.347Z,27.40
2022-08-17T11:21:29.363Z,27.20
2022-08-17T11:23:04.991Z,27.20
2022-08-17T11:24:18.393Z,27.20
2022-08-17T11:25:39.488Z,27.20
2022-08-17T11:26:47.649Z,27.40
2022-08-17T11:27:53.955Z,27.40
2022-08-17T11:29:03.875Z,27.30
2022-08-17T11:30:12.288Z,27.30
2022-08-17T11:31:38.498Z,27.30
2022-08-17T11:32:54.773Z,27.40
2022-08-17T11:34:02.441Z,27.20
2022-08-17T11:35:37.347Z,27.30
2022-08-17T11:37:11.292Z,27.30
2022-08-17T11:38:28.383Z,27.20
2022-08-17T11:39:54.688Z,27.40
2022-08-17T11:41:17.608Z,27.50
2022-08-17T11:42:41.512Z,27.40
2022-08-17T11:44:04.255Z,27.60
2022-08-17T11:45:32.600Z,27.50
2022-08-17T11:47:08.844Z,27.60
2022-08-17T11:48:43.323Z,27.70
2022-08-17T11:51:36.408Z,27.80
2022-08-17T11:52:44.538Z,27.70
2022-08-17T11:54:32.689Z,27.70
2022-08-17T11:56:04.113Z,27.60
2022-08-17T11:57:40.780Z,27.60
2022-08-17T11:58:46.481Z,27.60
2022-08-17T12:00:07.591Z,27.70
2022-08-17T12:01:16.151Z,27.70
2022-08-17T12:02:39.071Z,27.70
2022-08-17T12:03:54.063Z,27.80
2022-08-17T12:05:03.715Z,27.90
2022-08-17T12:06:24.357Z,27.80
2022-08-17T12:07:35.983Z,27.80
2022-08-17T12:08:43.461Z,27.70
2022-08-17T12:09:53.587Z,27.60
2022-08-17T12:11:08.522Z,27.60
2022-08-17T12:12:15.337Z,27.80
2022-08-17T12:13:19.261Z,27.70
2022-08-17T12:14:51.371Z,27.70
2022-08-17T12:16:03.382Z,27.80
2022-08-17T12:17:14.302Z,28.00
2022-08-17T12:18:31.281Z,28.00
2022-08-17T12:19:36.250Z,28.00
2022-08-17T12:20:42.872Z,28.10
2022-08-17T12:22:00.522Z,28.20
2022-08-17T12:23:10.846Z,28.30
2022-08-17T12:24:32.120Z,28.40
2022-08-17T12:25:46.327Z,28.40
2022-08-17T12:26:54.521Z,28.40
2022-08-17T12:28:05.121Z,28.40
2022-08-17T12:29:17.878Z,28.40
2022-08-17T12:30:47.581Z,28.40
2022-08-17T12:32:02.350Z,28.40
2022-08-17T12:33:25.707Z,28.30
2022-08-17T12:34:36.853Z,28.30
2022-08-17T12:35:40.512Z,28.30
2022-08-17T12:36:49.523Z,28.30
2022-08-17T12:37:53.404Z,28.30
2022-08-17T12:40:22.494Z,28.50
2022-08-17T12:41:40.339Z,28.60
2022-08-17T12:46:17.882Z,28.80
2022-08-17T12:47:29.361Z,29.00
2022-08-17T12:48:36.237Z,29.20
2022-08-17T12:49:42.430Z,29.20
2022-08-17T12:50:52.520Z,29.50
2022-08-17T12:52:08.941Z,29.60
2022-08-17T12:53:13.930Z,29.90
2022-08-17T12:54:28.902Z,30.10
2022-08-17T12:55:45.312Z,30.10
2022-08-17T12:58:01.995Z,30.20
2022-08-17T12:59:07.260Z,30.10
2022-08-17T13:00:17.596Z,30.20
2022-08-17T13:01:20.687Z,30.20
2022-08-17T13:02:37.547Z,30.00
2022-08-17T13:03:45.252Z,29.90
2022-08-17T13:04:48.069Z,30.10
2022-08-17T13:06:00.806Z,30.20
2022-08-17T13:07:03.293Z,30.20
2022-08-17T13:08:23.481Z,30.30
2022-08-17T13:10:44.424Z,30.50
2022-08-17T13:11:49.020Z,30.70
2022-08-17T13:12:53.692Z,30.50
2022-08-17T13:14:13.373Z,30.50
2022-08-17T13:15:23.200Z,30.60
2022-08-17T13:16:27.913Z,30.80
2022-08-17T13:17:35.743Z,31.20
2022-08-17T13:18:44.124Z,31.50
2022-08-17T13:19:57.336Z,32.10
2022-08-17T13:21:01.128Z,32.40
2022-08-17T13:22:10.554Z,33.00
2022-08-17T13:24:38.206Z,33.90
2022-08-17T13:25:41.663Z,34.20
2022-08-17T13:26:54.326Z,34.50
2022-08-17T13:27:58.297Z,34.40
2022-08-17T13:29:01.424Z,34.80
2022-08-17T13:30:15.323Z,34.80
2022-08-17T13:31:29.902Z,34.80
2022-08-17T13:32:49.330Z,34.60
2022-08-17T13:34:11.521Z,34.60
2022-08-17T13:35:48.806Z,34.90
2022-08-17T13:37:15.154Z,35.40
2022-08-17T13:38:40.595Z,35.00
2022-08-17T13:39:44.027Z,35.00
2022-08-17T13:40:58.332Z,34.90
2022-08-17T13:42:00.458Z,34.80
2022-08-17T13:43:10.314Z,34.90
2022-08-17T13:44:31.818Z,34.90
2022-08-17T13:45:50.707Z,35.00
2022-08-17T13:46:55.890Z,35.50
2022-08-17T13:48:18.548Z,35.60
2022-08-17T13:49:23.663Z,35.50
2022-08-17T13:50:26.296Z,35.40
2022-08-17T13:51:33.620Z,35.50
2022-08-17T13:52:39.792Z,35.40
2022-08-17T13:54:03.324Z,35.30
2022-08-17T13:55:23.056Z,35.50
2022-08-17T13:56:43.435Z,35.90
2022-08-17T13:57:47.698Z,36.30
2022-08-17T13:59:02.369Z,36.90
2022-08-17T14:00:17.435Z,37.40
2022-08-17T14:05:52.435Z,37.90
2022-08-17T14:07:04.352Z,38.30
2022-08-17T14:12:33.253Z,39.30
2022-08-17T14:13:37.292Z,39.00
2022-08-17T14:14:49.343Z,38.90
2022-08-17T14:15:54.912Z,38.60
2022-08-17T14:16:59.816Z,38.70
2022-08-17T14:18:01.950Z,39.20
2022-08-17T14:19:05.912Z,39.50
2022-08-17T14:20:18.354Z,39.20
2022-08-17T20:16:29.610Z,20.30
2022-08-17T20:17:38.499Z,20.30
2022-08-17T20:18:49.844Z,20.10
2022-08-17T20:19:56.582Z,20.10
2022-08-17T20:21:08.618Z,20.10
2022-08-17T20:22:37.620Z,20.00
2022-08-17T20:24:00.960Z,20.00
2022-08-17T20:25:11.255Z,20.00
2022-08-17T20:26:21.723Z,19.90
2022-08-17T20:27:36.613Z,19.90
2022-08-17T20:29:06.673Z,19.90
2022-08-17T20:30:12.939Z,20.00
2022-08-17T20:31:41.298Z,20.00
2022-08-17T20:33:02.349Z,20.10
2022-08-17T20:34:40.627Z,20.10
2022-08-17T20:36:03.096Z,20.10
2022-08-17T20:37:09.776Z,20.10
2022-08-17T20:38:36.237Z,20.10
2022-08-17T20:39:49.690Z,20.10
2022-08-17T20:41:13.942Z,20.10
2022-08-17T20:42:30.521Z,20.10
2022-08-17T20:43:52.108Z,20.10
2022-08-17T20:45:04.641Z,20.10
2022-08-17T20:46:28.170Z,20.10
2022-08-17T20:47:33.701Z,20.00
2022-08-17T20:48:42.833Z,20.10
2022-08-17T20:49:53.008Z,20.10
2022-08-17T20:51:07.597Z,20.10
2022-08-17T20:52:19.620Z,20.10
2022-08-17T20:54:00.006Z,20.00
2022-08-17T20:55:04.444Z,20.10
2022-08-17T20:56:07.042Z,20.10
2022-08-17T20:57:37.814Z,20.10
2022-08-17T20:58:47.288Z,20.10
2022-08-17T21:00:04.836Z,20.10
2022-08-17T21:01:14.222Z,20.10
2022-08-17T21:02:27.621Z,20.10
2022-08-17T21:04:03.662Z,20.10
2022-08-17T21:05:30.339Z,20.00
2022-08-17T21:06:33.687Z,20.10
2022-08-17T21:07:55.906Z,20.00
2022-08-17T21:09:27.634Z,20.10
2022-08-17T21:10:43.615Z,20.00
2022-08-17T21:12:04.568Z,20.00
2022-08-17T21:13:47.689Z,20.00
2022-08-17T21:15:01.890Z,20.00
2022-08-17T21:16:25.704Z,19.90
2022-08-17T21:18:52.719Z,19.90
2022-08-17T21:20:11.546Z,20.00
2022-08-17T21:21:24.954Z,19.90
2022-08-17T21:22:42.334Z,19.90
2022-08-17T21:24:13.623Z,19.90
2022-08-17T21:25:33.099Z,19.80
2022-08-17T21:26:50.567Z,19.90
2022-08-17T21:28:10.659Z,19.80
2022-08-17T21:29:30.994Z,19.80
2022-08-17T21:30:55.352Z,19.80
2022-08-17T21:32:27.647Z,19.80
2022-08-17T21:33:38.971Z,19.70
2022-08-17T21:34:43.678Z,19.70
2022-08-17T21:35:52.100Z,19.70
2022-08-17T21:36:57.781Z,19.70
2022-08-17T21:38:10.620Z,19.80
2022-08-17T21:39:17.124Z,19.70
2022-08-17T21:40:27.489Z,19.70
2022-08-17T21:41:33.833Z,19.80
2022-08-17T21:42:45.643Z,19.80
2022-08-17T21:43:52.452Z,19.80
2022-08-17T21:46:14.637Z,19.80
2022-08-17T21:47:20.943Z,19.80
2022-08-17T21:48:27.229Z,19.80
2022-08-17T21:49:29.542Z,19.80
2022-08-17T21:50:50.650Z,19.80
2022-08-17T21:51:57.408Z,19.90
2022-08-17T21:53:02.414Z,19.90
2022-08-17T21:54:31.404Z,19.90
2022-08-17T21:55:42.638Z,19.90
2022-08-17T21:56:49.115Z,19.60
2022-08-17T21:58:13.758Z,20.00
2022-08-17T21:59:27.492Z,20.00
2022-08-17T22:00:32.208Z,20.00
2022-08-17T22:01:38.393Z,20.00
2022-08-17T22:02:48.625Z,20.00
2022-08-17T22:04:08.671Z,19.90
2022-08-17T22:05:13.492Z,20.00
2022-08-17T22:06:25.165Z,19.90
2022-08-17T22:07:51.864Z,19.90
2022-08-17T22:09:03.067Z,19.90
2022-08-17T22:10:09.319Z,19.90
2022-08-17T22:11:13.976Z,19.90
2022-08-17T22:12:19.290Z,19.80
2022-08-17T22:13:30.646Z,19.80
2022-08-17T22:14:52.155Z,19.80
2022-08-17T22:16:27.839Z,19.80
2022-08-17T22:17:35.983Z,19.80
2022-08-17T22:18:45.697Z,19.70
2022-08-17T22:19:51.839Z,19.70
2022-08-17T22:20:56.499Z,19.70
2022-08-17T22:22:04.987Z,19.70
2022-08-17T22:23:32.582Z,19.70
2022-08-17T22:24:43.667Z,19.70
2022-08-17T22:26:00.155Z,19.70
2022-08-17T22:27:08.598Z,19.70
2022-08-17T22:28:12.370Z,19.70
2022-08-17T22:29:50.661Z,19.70
2022-08-17T22:31:04.306Z,19.70
2022-08-17T22:32:06.756Z,19.70
2022-08-17T22:33:43.879Z,19.70
2022-08-17T22:34:46.178Z,19.70
2022-08-17T22:35:56.669Z,19.70
2022-08-17T22:37:20.757Z,19.70
2022-08-17T22:38:33.958Z,19.70
2022-08-17T22:39:41.004Z,19.70
2022-08-17T22:40:51.678Z,19.70
2022-08-17T22:41:59.415Z,19.70
2022-08-17T22:43:03.327Z,19.70
2022-08-17T22:44:24.240Z,19.70
2022-08-17T22:45:29.826Z,19.70
2022-08-17T22:46:44.717Z,19.70
2022-08-17T22:47:48.921Z,19.70
2022-08-17T22:48:55.931Z,19.70
2022-08-17T22:50:02.442Z,19.70
2022-08-17T22:51:13.252Z,19.60
2022-08-17T22:52:37.731Z,19.60
2022-08-17T22:54:05.349Z,19.70
2022-08-17T22:55:33.294Z,19.60
2022-08-17T22:56:54.652Z,19.60
2022-08-17T22:58:23.648Z,19.60
2022-08-17T22:59:47.776Z,19.70
2022-08-17T23:00:50.366Z,19.60
2022-08-17T23:02:24.581Z,19.60
2022-08-17T23:03:34.709Z,19.50
2022-08-17T23:04:41.235Z,19.50
2022-08-17T23:05:48.249Z,19.50
2022-08-17T23:06:51.603Z,19.50
2022-08-17T23:07:53.974Z,19.50
2022-08-17T23:09:05.695Z,19.50
2022-08-17T23:10:15.703Z,19.60
2022-08-17T23:11:18.952Z,19.60
2022-08-17T23:12:40.054Z,19.60
2022-08-17T23:13:42.557Z,19.60
2022-08-17T23:14:49.326Z,19.50
2022-08-17T23:15:58.684Z,19.50
2022-08-17T23:17:02.765Z,19.50
2022-08-17T23:18:05.703Z,19.50
2022-08-17T23:19:09.950Z,19.50
2022-08-17T23:20:15.088Z,19.50
2022-08-17T23:21:27.457Z,19.50
2022-08-17T23:22:30.027Z,19.40
2022-08-17T23:23:33.271Z,19.40
2022-08-17T23:24:42.026Z,19.50
2022-08-17T23:25:51.727Z,19.40
2022-08-17T23:27:03.688Z,19.40
2022-08-17T23:28:08.096Z,19.50
2022-08-17T23:29:10.407Z,19.40
2022-08-17T23:30:13.985Z,19.40
2022-08-17T23:31:19.229Z,19.40
2022-08-17T23:32:35.950Z,19.40
2022-08-17T23:33:54.906Z,19.30
2022-08-17T23:35:03.895Z,19.30
2022-08-17T23:36:08.884Z,19.30
2022-08-17T23:37:12.103Z,19.30
2022-08-17T23:38:21.696Z,19.30
2022-08-17T23:39:31.734Z,19.20
2022-08-17T23:40:36.395Z,19.30
2022-08-17T23:41:40.084Z,19.30
2022-08-17T23:42:43.832Z,19.30
2022-08-17T23:43:52.190Z,19.30
2022-08-17T23:45:02.748Z,19.30
2022-08-17T23:46:07.218Z,19.30
2022-08-17T23:47:10.747Z,19.30
2022-08-17T23:48:13.877Z,19.30
2022-08-17T23:49:31.713Z,19.30
2022-08-17T23:50:41.709Z,19.30
2022-08-17T23:51:45.733Z,19.30
2022-08-17T23:52:49.080Z,19.30
2022-08-17T23:53:58.066Z,19.30
2022-08-17T23:55:01.413Z,19.20
2022-08-17T23:56:11.961Z,19.30
2022-08-17T23:57:33.993Z,19.30
2022-08-17T23:58:39.797Z,19.30
2022-08-17T23:59:50.692Z,19.30
